createdAt,value
2022-11-19T00:00:55.681Z,5.02
2022-11-19T00:03:23.550Z,4.91
2022-11-19T00:05:50.302Z,5.08
2022-11-19T00:08:18.758Z,4.98
2022-11-19T00:10:46.199Z,5.02
2022-11-19T00:13:14.219Z,5.22
2022-11-19T00:15:41.208Z,4.88
2022-11-19T00:18:08.142Z,5.20
2022-11-19T00:20:35.106Z,4.99
2022-11-19T00:23:01.697Z,5.20
2022-11-19T00:25:30.026Z,5.21
2022-11-19T00:27:57.500Z,5.11
2022-11-19T00:30:47.144Z,5.11
2022-11-19T00:33:10.836Z,5.04
2022-11-19T00:35:37.288Z,5.04
2022-11-19T00:38:03.758Z,5.03
2022-11-19T00:40:30.352Z,4.88
2022-11-19T00:43:15.516Z,5.04
2022-11-19T00:45:44.391Z,5.02
2022-11-19T00:48:11.014Z,4.78
2022-11-19T00:50:37.460Z,4.72
2022-11-19T00:53:03.924Z,4.41
2022-11-19T00:55:30.373Z,4.35
2022-11-19T00:57:56.829Z,4.40
2022-11-19T01:00:23.365Z,4.62
2022-11-19T01:02:49.897Z,4.55
2022-11-19T01:05:16.365Z,4.99
2022-11-19T01:07:42.893Z,4.66
2022-11-19T01:10:09.446Z,5.14
2022-11-19T01:12:55.958Z,5.27
2022-11-19T01:15:22.406Z,5.25
2022-11-19T01:17:48.871Z,5.26
2022-11-19T01:20:15.942Z,5.22
2022-11-19T01:22:42.505Z,4.89
2022-11-19T01:25:09.797Z,4.95
2022-11-19T01:27:36.264Z,4.96
2022-11-19T01:30:02.720Z,5.09
2022-11-19T01:32:29.163Z,5.02
2022-11-19T01:34:55.604Z,4.65
2022-11-19T01:37:22.086Z,4.72
2022-11-19T01:39:48.529Z,4.95
2022-11-19T01:42:49.972Z,5.13
2022-11-19T01:45:28.518Z,5.11
2022-11-19T01:48:16.607Z,5.14
2022-11-19T01:50:46.321Z,4.91
2022-11-19T01:53:13.516Z,4.76
2022-11-19T01:55:41.770Z,4.73
2022-11-19T01:58:08.230Z,4.82
2022-11-19T02:00:34.804Z,4.81
2022-11-19T02:03:01.257Z,4.99
2022-11-19T02:05:28.213Z,4.82
2022-11-19T02:07:57.522Z,4.75
2022-11-19T02:10:41.017Z,4.89
2022-11-19T02:13:28.192Z,4.97
2022-11-19T02:16:02.121Z,4.90
2022-11-19T02:18:38.076Z,4.74
2022-11-19T02:21:34.401Z,4.65
2022-11-19T02:24:03.747Z,4.56
2022-11-19T02:26:44.422Z,4.55
2022-11-19T02:29:29.077Z,4.52
2022-11-19T02:32:08.437Z,4.57
2022-11-19T02:34:58.519Z,4.26
2022-11-19T02:37:31.546Z,4.24
2022-11-19T02:40:14.008Z,4.09
2022-11-19T02:42:55.163Z,4.18
2022-11-19T02:45:30.337Z,4.08
2022-11-19T02:48:23.917Z,4.15
2022-11-19T02:50:55.412Z,4.08
2022-11-19T02:53:23.465Z,4.04
2022-11-19T02:56:08.452Z,3.76
2022-11-19T02:58:53.969Z,3.81
2022-11-19T03:01:40.767Z,3.75
2022-11-19T03:04:26.769Z,3.73
2022-11-19T03:06:54.174Z,3.78
2022-11-19T03:09:21.722Z,3.48
2022-11-19T03:11:54.210Z,3.59
2022-11-19T03:14:42.714Z,3.51
2022-11-19T03:17:21.204Z,3.52
2022-11-19T03:19:58.121Z,3.60
2022-11-19T03:22:35.913Z,3.46
2022-11-19T03:25:07.269Z,3.63
2022-11-19T03:27:40.586Z,3.62
2022-11-19T03:30:07.996Z,3.61
2022-11-19T03:32:53.050Z,3.50
2022-11-19T03:35:23.317Z,3.39
2022-11-19T03:37:52.947Z,3.58
2022-11-19T03:40:20.248Z,3.11
2022-11-19T03:42:51.373Z,3.46
2022-11-19T03:45:23.376Z,3.47
2022-11-19T03:47:50.445Z,3.22
2022-11-19T03:50:23.663Z,3.26
2022-11-19T03:52:50.139Z,3.14
2022-11-19T03:55:16.658Z,3.23
2022-11-19T03:57:43.295Z,3.30
2022-11-19T04:00:10.396Z,3.38
2022-11-19T04:02:36.847Z,3.15
2022-11-19T04:05:03.302Z,3.29
2022-11-19T04:07:29.790Z,3.14
2022-11-19T04:09:56.291Z,3.38
2022-11-19T04:12:24.409Z,3.33
2022-11-19T04:14:51.549Z,3.13
2022-11-19T04:17:19.138Z,3.27
2022-11-19T04:19:46.514Z,3.30
2022-11-19T04:22:12.948Z,3.33
2022-11-19T04:24:39.517Z,3.39
2022-11-19T04:27:05.993Z,3.18
2022-11-19T04:29:32.453Z,3.37
2022-11-19T04:31:58.904Z,3.29
2022-11-19T04:34:25.349Z,3.31
2022-11-19T04:36:51.789Z,3.37
2022-11-19T04:39:18.741Z,3.36
2022-11-19T04:41:45.522Z,3.37
2022-11-19T04:44:11.968Z,3.24
2022-11-19T04:46:38.477Z,3.12
2022-11-19T04:49:04.916Z,3.05
2022-11-19T04:51:31.374Z,3.10
2022-11-19T04:53:57.816Z,2.98
2022-11-19T04:56:24.306Z,2.90
2022-11-19T04:58:50.752Z,2.84
2022-11-19T05:01:17.497Z,2.95
2022-11-19T05:03:43.994Z,2.90
2022-11-19T05:06:10.437Z,2.98
2022-11-19T05:08:36.880Z,3.04
2022-11-19T05:11:03.324Z,3.17
2022-11-19T05:13:29.770Z,3.23
2022-11-19T05:15:56.227Z,3.24
2022-11-19T05:18:23.941Z,3.15
2022-11-19T05:20:50.381Z,3.18
2022-11-19T05:23:16.883Z,3.18
2022-11-19T05:25:43.365Z,3.08
2022-11-19T05:28:09.995Z,3.21
2022-11-19T05:30:36.488Z,3.08
2022-11-19T05:33:02.924Z,2.95
2022-11-19T05:35:29.386Z,2.87
2022-11-19T05:37:55.825Z,2.67
2022-11-19T05:40:22.306Z,2.71
2022-11-19T05:42:48.758Z,2.67
2022-11-19T05:45:15.245Z,2.63
2022-11-19T05:47:45.995Z,2.66
2022-11-19T05:50:14.996Z,2.57
2022-11-19T05:52:41.549Z,2.52
2022-11-19T05:55:08.030Z,2.50
2022-11-19T05:57:34.566Z,2.62
2022-11-19T06:00:01.015Z,2.58
2022-11-19T06:02:27.570Z,2.52
2022-11-19T06:04:54.128Z,2.43
2022-11-19T06:07:20.631Z,2.25
2022-11-19T06:09:47.151Z,2.24
2022-11-19T06:12:13.610Z,2.26
2022-11-19T06:14:40.186Z,2.28
2022-11-19T06:17:06.702Z,2.06
2022-11-19T06:19:33.232Z,2.16
2022-11-19T06:21:59.686Z,2.21
2022-11-19T06:24:26.288Z,2.30
2022-11-19T06:26:52.733Z,2.51
2022-11-19T06:29:19.476Z,2.53
2022-11-19T06:31:46.836Z,2.32
2022-11-19T06:34:13.348Z,2.40
2022-11-19T06:36:43.927Z,2.47
2022-11-19T06:39:14.230Z,2.60
2022-11-19T06:41:40.676Z,2.86
2022-11-19T06:44:07.198Z,2.86
2022-11-19T06:46:33.655Z,2.72
2022-11-19T06:49:00.129Z,2.60
2022-11-19T06:51:26.589Z,2.44
2022-11-19T06:53:53.044Z,2.47
2022-11-19T06:56:19.507Z,2.52
2022-11-19T06:58:46.036Z,2.61
2022-11-19T07:01:14.320Z,2.67
2022-11-19T07:03:41.230Z,2.75
2022-11-19T07:06:07.670Z,2.67
2022-11-19T07:08:35.527Z,2.75
2022-11-19T07:11:22.800Z,2.68
2022-11-19T07:13:59.775Z,2.72
2022-11-19T07:16:31.755Z,2.73
2022-11-19T07:18:59.398Z,2.65
2022-11-19T07:21:26.184Z,2.88
2022-11-19T07:23:52.695Z,2.95
2022-11-19T07:26:19.208Z,3.02
2022-11-19T07:28:45.652Z,3.03
2022-11-19T07:31:12.150Z,3.10
2022-11-19T07:33:39.349Z,3.16
2022-11-19T07:36:07.583Z,3.24
2022-11-19T07:38:37.103Z,3.23
2022-11-19T07:41:24.869Z,3.09
2022-11-19T07:43:51.343Z,3.02
2022-11-19T07:46:17.788Z,2.94
2022-11-19T07:48:44.250Z,3.15
2022-11-19T07:51:10.710Z,3.20
2022-11-19T07:53:37.161Z,3.15
2022-11-19T07:56:03.925Z,3.32
2022-11-19T07:58:30.371Z,3.57
2022-11-19T08:00:56.855Z,3.47
2022-11-19T08:03:23.310Z,3.66
2022-11-19T08:05:49.755Z,3.82
2022-11-19T08:08:16.215Z,3.74
2022-11-19T08:10:42.708Z,3.80
2022-11-19T08:13:09.160Z,3.91
2022-11-19T08:15:35.600Z,3.75
2022-11-19T08:18:15.497Z,3.84
2022-11-19T08:20:43.657Z,4.03
2022-11-19T08:23:10.526Z,4.00
2022-11-19T08:25:37.206Z,4.00
2022-11-19T08:28:04.759Z,4.22
2022-11-19T08:30:31.863Z,4.28
2022-11-19T08:32:58.445Z,4.22
2022-11-19T08:35:25.146Z,4.21
2022-11-19T08:37:51.622Z,4.24
2022-11-19T08:40:18.195Z,4.22
2022-11-19T08:42:59.729Z,4.05
2022-11-19T08:45:37.597Z,4.18
2022-11-19T08:48:06.396Z,4.18
2022-11-19T08:50:33.283Z,4.09
2022-11-19T08:53:02.011Z,4.15
2022-11-19T08:55:29.846Z,4.18
2022-11-19T08:58:03.970Z,4.24
2022-11-19T09:00:31.385Z,4.05
2022-11-19T09:03:00.612Z,4.24
2022-11-19T09:05:27.302Z,4.22
2022-11-19T09:07:56.766Z,4.51
2022-11-19T09:10:23.299Z,4.66
2022-11-19T09:12:49.737Z,4.59
2022-11-19T09:15:16.246Z,4.66
2022-11-19T09:17:46.826Z,4.51
2022-11-19T09:20:13.791Z,4.64
2022-11-19T09:22:40.607Z,4.50
2022-11-19T09:25:08.845Z,4.48
2022-11-19T09:27:36.314Z,4.59
2022-11-19T09:30:03.405Z,4.85
2022-11-19T09:32:31.193Z,5.78
2022-11-19T09:34:57.725Z,6.02
2022-11-19T09:37:24.194Z,7.49
2022-11-19T09:39:50.713Z,8.07
2022-11-19T09:42:31.672Z,7.46
2022-11-19T09:45:19.108Z,7.64
2022-11-19T09:47:55.496Z,6.92
2022-11-19T09:50:26.996Z,6.84
2022-11-19T09:52:56.362Z,7.38
2022-11-19T09:55:31.501Z,7.12
2022-11-19T09:57:59.438Z,6.75
2022-11-19T10:00:29.171Z,6.95
2022-11-19T10:02:57.276Z,6.99
2022-11-19T10:05:47.350Z,6.70
2022-11-19T10:08:20.771Z,6.72
2022-11-19T10:11:06.399Z,7.00
2022-11-19T10:14:11.311Z,7.11
2022-11-19T10:16:47.960Z,7.36
2022-11-19T10:19:38.867Z,7.17
2022-11-19T10:22:20.459Z,7.43
2022-11-19T10:25:04.293Z,7.61
2022-11-19T10:27:40.969Z,7.71
2022-11-19T10:30:14.444Z,7.61
2022-11-19T10:32:44.280Z,7.49
2022-11-19T10:35:20.135Z,7.63
2022-11-19T10:38:10.893Z,7.93
2022-11-19T10:40:46.838Z,7.60
2022-11-19T10:43:20.656Z,7.87
2022-11-19T10:45:49.557Z,7.72
2022-11-19T10:48:22.343Z,7.84
2022-11-19T10:50:49.622Z,8.10
2022-11-19T10:53:29.122Z,8.25
2022-11-19T10:56:04.870Z,8.27
2022-11-19T10:58:40.584Z,8.78
2022-11-19T11:01:14.928Z,8.69
2022-11-19T11:03:58.524Z,9.31
2022-11-19T11:06:25.001Z,10.18
2022-11-19T11:08:52.209Z,9.63
2022-11-19T11:11:49.504Z,10.71
2022-11-19T11:14:36.509Z,10.97
2022-11-19T11:17:04.900Z,9.73
2022-11-19T11:19:31.942Z,11.94
2022-11-19T11:21:58.458Z,11.37
2022-11-19T11:24:36.306Z,10.23
2022-11-19T11:27:33.563Z,11.53
2022-11-19T11:30:12.194Z,11.46
2022-11-19T11:32:39.421Z,11.46
2022-11-19T11:35:09.935Z,9.97
2022-11-19T11:37:38.756Z,9.61
2022-11-19T11:40:06.114Z,9.36
2022-11-19T11:42:32.665Z,9.08
2022-11-19T11:45:00.758Z,8.89
2022-11-19T11:47:33.606Z,9.89
2022-11-19T11:50:14.586Z,9.06
2022-11-19T11:52:43.046Z,8.23
2022-11-19T11:55:31.611Z,8.12
2022-11-19T11:58:24.273Z,8.33
2022-11-19T12:00:53.351Z,9.54
2022-11-19T12:03:20.141Z,12.02
2022-11-19T12:06:17.810Z,13.59
2022-11-19T12:08:54.828Z,14.13
2022-11-19T12:11:55.419Z,14.66
2022-11-19T12:14:52.173Z,15.27
2022-11-19T12:17:48.296Z,15.14
2022-11-19T12:20:30.960Z,15.05
2022-11-19T12:23:14.029Z,15.20
2022-11-19T12:26:02.477Z,15.67
2022-11-19T12:29:06.897Z,15.28
2022-11-19T12:31:52.294Z,16.13
2022-11-19T12:34:40.395Z,16.38
2022-11-19T12:37:25.804Z,14.24
2022-11-19T12:40:20.537Z,12.44
2022-11-19T12:43:21.341Z,10.64
2022-11-19T12:45:57.485Z,10.07
2022-11-19T12:48:23.882Z,9.72
2022-11-19T12:50:57.346Z,9.44
2022-11-19T12:53:41.874Z,9.47
2022-11-19T12:56:30.802Z,9.16
2022-11-19T12:59:22.837Z,9.70
2022-11-19T13:01:51.407Z,12.13
2022-11-19T13:04:38.898Z,13.25
2022-11-19T13:07:10.610Z,13.93
2022-11-19T13:09:44.123Z,14.94
2022-11-19T13:12:13.717Z,14.56
2022-11-19T13:14:59.567Z,15.46
2022-11-19T13:17:40.259Z,15.26
2022-11-19T13:20:25.970Z,15.23
2022-11-19T13:22:55.997Z,15.51
2022-11-19T13:25:25.668Z,15.74
2022-11-19T13:27:53.596Z,16.01
2022-11-19T13:30:26.696Z,16.34
2022-11-19T13:33:00.882Z,16.06
2022-11-19T13:35:29.222Z,15.71
2022-11-19T13:38:21.262Z,15.89
2022-11-19T13:41:09.091Z,16.30
2022-11-19T13:43:54.149Z,16.31
2022-11-19T13:46:25.263Z,16.31
2022-11-19T13:49:01.517Z,15.83
2022-11-19T13:51:38.188Z,15.78
2022-11-19T13:54:07.147Z,15.97
2022-11-19T13:56:43.777Z,15.99
2022-11-19T13:59:25.834Z,16.36
2022-11-19T14:01:58.924Z,16.44
2022-11-19T14:04:36.000Z,16.64
2022-11-19T14:07:19.035Z,15.94
2022-11-19T14:10:04.301Z,15.44
2022-11-19T14:12:43.848Z,14.31
2022-11-19T14:16:00.199Z,12.51
2022-11-19T14:18:59.692Z,10.54
2022-11-19T14:21:44.608Z,9.90
2022-11-19T14:24:44.824Z,9.00
2022-11-19T14:27:17.199Z,8.58
2022-11-19T14:29:43.550Z,8.31
2022-11-19T14:32:09.879Z,7.95
2022-11-19T14:34:47.745Z,7.78
2022-11-19T14:37:21.197Z,7.51
2022-11-19T14:39:54.795Z,7.29
2022-11-19T14:42:22.123Z,7.18
2022-11-19T14:45:03.713Z,7.40
2022-11-19T14:47:34.481Z,7.01
2022-11-19T14:50:03.508Z,6.82
2022-11-19T14:52:36.335Z,6.92
2022-11-19T14:55:29.092Z,6.52
2022-11-19T14:58:04.547Z,6.52
2022-11-19T15:00:37.420Z,6.45
2022-11-19T15:03:06.478Z,6.42
2022-11-19T15:05:35.659Z,6.52
2022-11-19T15:08:17.145Z,6.54
2022-11-19T15:11:01.842Z,6.21
2022-11-19T15:13:29.967Z,6.24
2022-11-19T15:16:17.180Z,6.30
2022-11-19T15:18:55.076Z,6.36
2022-11-19T15:21:52.610Z,6.37
2022-11-19T15:24:53.161Z,6.38
2022-11-19T15:27:41.867Z,6.30
2022-11-19T15:30:12.811Z,6.23
2022-11-19T15:32:50.069Z,6.45
2022-11-19T15:35:35.833Z,6.45
2022-11-19T15:38:19.916Z,6.16
2022-11-19T15:40:49.592Z,6.06
2022-11-19T15:43:24.046Z,6.17
2022-11-19T15:46:07.670Z,6.03
2022-11-19T15:49:05.271Z,5.89
2022-11-19T15:51:39.788Z,5.59
2022-11-19T15:54:11.665Z,5.45
2022-11-19T15:56:45.962Z,5.44
2022-11-19T15:59:12.982Z,5.52
2022-11-19T16:01:40.948Z,5.68
2022-11-19T16:04:12.837Z,5.80
2022-11-19T16:06:44.722Z,5.76
2022-11-19T16:09:18.622Z,5.93
2022-11-19T16:12:04.471Z,5.97
2022-11-19T16:14:49.390Z,5.82
2022-11-19T16:17:43.044Z,5.82
2022-11-19T16:20:10.114Z,5.74
2022-11-19T16:23:00.206Z,5.72
2022-11-19T16:25:34.341Z,5.61
2022-11-19T16:28:05.093Z,5.58
2022-11-19T16:30:39.805Z,5.46
2022-11-19T16:33:06.445Z,5.38
2022-11-19T16:35:33.192Z,5.31
2022-11-19T16:38:00.745Z,5.43
2022-11-19T16:40:27.572Z,5.23
2022-11-19T16:42:56.464Z,5.38
2022-11-19T16:45:25.666Z,5.47
2022-11-19T16:47:57.379Z,5.55
2022-11-19T16:50:36.341Z,5.12
2022-11-19T16:53:05.567Z,5.45
2022-11-19T16:55:33.963Z,5.26
2022-11-19T16:58:00.323Z,5.09
2022-11-19T17:00:32.917Z,5.37
2022-11-19T17:03:00.037Z,5.24
2022-11-19T17:05:30.277Z,5.34
2022-11-19T17:08:19.583Z,5.23
2022-11-19T17:10:46.433Z,5.26
2022-11-19T17:13:28.454Z,5.13
2022-11-19T17:15:55.015Z,5.32
2022-11-19T17:18:29.097Z,5.24
2022-11-19T17:20:57.152Z,4.96
2022-11-19T17:23:32.112Z,5.15
2022-11-19T17:26:03.543Z,5.09
2022-11-19T17:28:45.297Z,5.17
2022-11-19T17:31:20.041Z,5.15
2022-11-19T17:34:09.601Z,5.19
2022-11-19T17:36:36.474Z,4.96
2022-11-19T17:39:11.582Z,4.99
2022-11-19T17:41:57.499Z,5.06
2022-11-19T17:44:34.610Z,5.10
2022-11-19T17:47:21.225Z,5.19
2022-11-19T17:49:49.402Z,5.06
2022-11-19T17:52:26.968Z,5.08
2022-11-19T17:54:56.162Z,5.13
2022-11-19T17:57:22.668Z,5.26
2022-11-19T17:59:49.167Z,5.20
2022-11-19T18:02:18.103Z,5.17
2022-11-19T18:04:45.387Z,5.19
2022-11-19T18:07:12.396Z,4.90
2022-11-19T18:09:39.552Z,4.87
2022-11-19T18:12:07.322Z,4.81
2022-11-19T18:14:33.772Z,4.69
2022-11-19T18:17:00.313Z,4.82
2022-11-19T18:19:28.613Z,4.81
2022-11-19T18:21:55.480Z,4.85
2022-11-19T18:24:22.235Z,4.94
2022-11-19T18:26:48.723Z,5.04
2022-11-19T18:29:15.223Z,4.89
2022-11-19T18:31:49.044Z,4.94
2022-11-19T18:34:21.428Z,4.71
2022-11-19T18:36:48.202Z,4.99
2022-11-19T18:39:14.965Z,4.88
2022-11-19T18:41:41.662Z,4.74
2022-11-19T18:44:31.103Z,4.81
2022-11-19T18:46:57.724Z,4.74
2022-11-19T18:49:24.346Z,4.76
2022-11-19T18:51:50.911Z,4.68
2022-11-19T18:54:17.374Z,4.65
2022-11-19T18:56:43.925Z,4.52
2022-11-19T18:59:11.949Z,4.54
2022-11-19T19:01:38.906Z,4.69
2022-11-19T19:04:10.075Z,4.78
2022-11-19T19:06:36.603Z,4.88
2022-11-19T19:09:03.661Z,4.60
2022-11-19T19:11:48.740Z,4.79
2022-11-19T19:14:15.339Z,4.78
2022-11-19T19:16:42.044Z,4.61
2022-11-19T19:19:10.112Z,4.81
2022-11-19T19:21:36.757Z,4.92
2022-11-19T19:24:05.237Z,4.58
2022-11-19T19:26:32.058Z,4.65
2022-11-19T19:28:58.649Z,4.66
2022-11-19T19:31:25.221Z,4.83
2022-11-19T19:33:52.348Z,4.76
2022-11-19T19:36:19.884Z,4.80
2022-11-19T19:38:46.967Z,4.76
2022-11-19T19:41:21.543Z,4.75
2022-11-19T19:43:52.774Z,4.63
2022-11-19T19:46:21.268Z,4.60
2022-11-19T19:48:49.548Z,4.77
2022-11-19T19:51:17.066Z,4.89
2022-11-19T19:53:43.932Z,4.66
2022-11-19T19:56:13.257Z,4.64
2022-11-19T19:58:40.802Z,4.67
2022-11-19T20:01:19.102Z,4.65
2022-11-19T20:03:50.410Z,4.77
2022-11-19T20:06:22.193Z,4.71
2022-11-19T20:08:48.832Z,4.76
2022-11-19T20:11:21.187Z,4.64
2022-11-19T20:13:47.869Z,4.60
2022-11-19T20:16:18.441Z,4.55
2022-11-19T20:18:46.531Z,4.51
2022-11-19T20:21:14.929Z,4.35
2022-11-19T20:23:41.819Z,4.51
2022-11-19T20:26:14.680Z,4.49
2022-11-19T20:28:41.368Z,4.29
2022-11-19T20:31:10.545Z,4.44
2022-11-19T20:33:37.775Z,4.52
2022-11-19T20:36:05.002Z,4.32
2022-11-19T20:38:31.569Z,4.35
2022-11-19T20:41:00.218Z,4.42
2022-11-19T20:43:52.437Z,4.50
2022-11-19T20:46:21.411Z,4.45
2022-11-19T20:48:48.605Z,4.55
2022-11-19T20:51:19.760Z,4.57
2022-11-19T20:53:46.548Z,4.45
2022-11-19T20:56:13.720Z,4.30
2022-11-19T20:58:40.169Z,4.39
2022-11-19T21:01:10.217Z,4.20
2022-11-19T21:03:36.908Z,4.35
2022-11-19T21:06:07.739Z,4.43
2022-11-19T21:08:35.848Z,4.31
2022-11-19T21:11:12.593Z,4.53
2022-11-19T21:13:39.335Z,4.44
2022-11-19T21:16:17.374Z,4.41
2022-11-19T21:18:43.907Z,4.48
2022-11-19T21:21:12.546Z,4.61
2022-11-19T21:23:40.260Z,4.51
2022-11-19T21:26:09.910Z,4.37
2022-11-19T21:28:37.489Z,4.33
2022-11-19T21:31:05.166Z,4.39
2022-11-19T21:33:31.689Z,4.25
2022-11-19T21:35:58.894Z,4.44
2022-11-19T21:38:25.969Z,4.46
2022-11-19T21:40:54.057Z,4.43
2022-11-19T21:43:21.032Z,4.58
2022-11-19T21:45:48.877Z,4.41
2022-11-19T21:48:15.896Z,4.33
2022-11-19T21:50:42.707Z,4.39
2022-11-19T21:53:10.050Z,4.38
2022-11-19T21:55:36.627Z,4.38
2022-11-19T21:58:06.610Z,4.52
2022-11-19T22:00:34.182Z,4.45
2022-11-19T22:03:00.921Z,4.30
2022-11-19T22:05:27.772Z,4.43
2022-11-19T22:07:54.215Z,4.49
2022-11-19T22:10:20.666Z,4.40
2022-11-19T22:12:47.115Z,4.28
2022-11-19T22:15:14.439Z,4.37
2022-11-19T22:17:41.023Z,4.32
2022-11-19T22:20:07.928Z,4.32
2022-11-19T22:22:35.603Z,4.31
2022-11-19T22:25:02.117Z,4.50
2022-11-19T22:27:29.334Z,4.44
2022-11-19T22:29:56.731Z,4.42
2022-11-19T22:32:23.319Z,4.34
2022-11-19T22:34:49.786Z,4.53
2022-11-19T22:37:16.256Z,4.49
2022-11-19T22:39:43.825Z,4.53
2022-11-19T22:42:10.321Z,4.58
2022-11-19T22:44:36.943Z,4.55
2022-11-19T22:47:03.420Z,4.55
2022-11-19T22:49:30.040Z,4.34
2022-11-19T22:51:56.499Z,4.16
2022-11-19T22:54:22.946Z,4.28
2022-11-19T22:56:49.436Z,4.25
2022-11-19T22:59:15.885Z,4.24
2022-11-19T23:01:42.372Z,4.22
2022-11-19T23:04:08.823Z,4.21
2022-11-19T23:06:36.671Z,4.06
2022-11-19T23:09:04.450Z,4.24
2022-11-19T23:11:49.456Z,4.27
2022-11-19T23:14:18.022Z,4.23
2022-11-19T23:16:44.825Z,3.99
2022-11-19T23:19:12.445Z,4.10
2022-11-19T23:21:39.203Z,4.22
2022-11-19T23:24:06.326Z,4.23
2022-11-19T23:26:33.356Z,4.13
2022-11-19T23:29:00.004Z,4.04
2022-11-19T23:31:34.642Z,3.97
2022-11-19T23:34:01.186Z,3.94
2022-11-19T23:36:36.553Z,4.05
2022-11-19T23:39:05.106Z,4.17
2022-11-19T23:41:33.407Z,4.15
2022-11-19T23:43:59.880Z,4.22
2022-11-19T23:46:31.552Z,4.01
2022-11-19T23:48:58.747Z,4.08
2022-11-19T23:51:30.461Z,3.97
2022-11-19T23:53:57.316Z,3.95
2022-11-19T23:56:24.373Z,4.07
2022-11-19T23:58:51.190Z,3.90
